Fallon, North Dakota
Current Conditions -  °F | °C
As of 8:35 AM on Friday 24 Oct 2014 (Local Time) from KY19 Reporting Station
Clear Clear  
Wind Chill: 37°   Ceiling: Unl
Heat Index: 41°   Visibility: 7mi
Dew Point: 32°   Wind: 6mph
Humidity: 70%   Direction: 260°W
Pressure: 29.86"   Gusts: NA
Location:  46.4673°N, 101.102°W
Report Text: KY19 241335Z AUTO 26005KT 7SM CLR 05/00 A2986 RMK AO2
Loading
Personal Weather Stations






























Interactive Weather Map
Tropical Storm Tracking
New forecast layout! Learn more

10-Day Weather Forecast

Advertisements
Track Severe Weather on mobile